Skip Navigation LinksHome page > Weather > Current weather Skip Navigation Links

Current Weather

Ronald Reagan Washington National, Washington

For information only: do not use for flight planning or navigation.
Latest weather
Observation time Friday, March 23, 2018 2:52 AM EDT
Local time Friday, March 23, 2018 3:14 AM EDT
Flight conditions Visual Meteorological Conditions
Wind direction North-Northwest (330°)
Wind speed 15 mph
Visibility 10 mi.
Sky condition
Ceiling unlimited
Cloud layer few clouds 20,000 ft.
Temperature 38°F
Dewpoint 19°F
Altimeter 30.14 in.Hg
Derived measurements
Relative humidity 46%
Wind chill 29°F
Density altitude -1596 ft.
Sea-level pressure 30.14 in.Hg
Automated weather observing station with precipitation discriminator.
METAR KDCA 230652Z 33013KT 10SM FEW200 03/M07 A3014 RMK AO2 SLP205 T00331072


Location code

InnerDrive.Weather 4.0.6615.0 Release CLR 4.0.30319.42000
Copyright ©2018 Inner Drive Technology. All rights reserved. Portions Copyright ©1986-2018 David Braverman.

Find weather

Site navigation

Skip Navigation Links

Place info

Page info

PayPal - The safer, easier way to pay online!

Return home.

Copyright ©2018 Inner Drive Technology. Purveyors of fine, hand-crafted computer software. Page printed 2018-03-23T07:14:41 UTC.